createdAt,value
2023-01-07T00:00:24.776Z,6.53
2023-01-07T00:02:58.352Z,6.65
2023-01-07T00:05:33.028Z,5.90
2023-01-07T00:08:07.794Z,6.04
2023-01-07T00:10:37.772Z,6.59
2023-01-07T00:13:07.773Z,6.19
2023-01-07T00:15:37.168Z,6.63
2023-01-07T00:18:11.943Z,5.88
2023-01-07T00:20:41.476Z,5.77
2023-01-07T00:23:17.538Z,6.13
2023-01-07T00:25:53.068Z,4.38
2023-01-07T00:28:22.276Z,4.68
2023-01-07T00:31:04.117Z,4.19
2023-01-07T00:33:48.180Z,5.41
2023-01-07T00:36:18.034Z,4.82
2023-01-07T00:38:49.183Z,5.06
2023-01-07T00:41:18.616Z,5.14
2023-01-07T00:43:52.778Z,4.24
2023-01-07T00:46:27.548Z,4.80
2023-01-07T00:49:01.841Z,4.56
2023-01-07T00:51:31.104Z,5.55
2023-01-07T00:54:06.079Z,4.32
2023-01-07T00:56:35.797Z,5.11
2023-01-07T00:59:06.837Z,5.08
2023-01-07T01:01:37.518Z,6.23
2023-01-07T01:04:11.247Z,6.82
2023-01-07T01:06:45.868Z,6.31
2023-01-07T01:09:15.782Z,5.41
2023-01-07T01:11:45.170Z,6.28
2023-01-07T01:14:14.661Z,5.35
2023-01-07T01:16:43.904Z,7.14
2023-01-07T01:19:13.373Z,7.24
2023-01-07T01:21:42.502Z,8.10
2023-01-07T01:24:16.291Z,5.52
2023-01-07T01:26:45.681Z,7.28
2023-01-07T01:29:15.764Z,7.64
2023-01-07T01:31:45.629Z,6.96
2023-01-07T01:34:15.773Z,5.92
2023-01-07T01:36:45.139Z,6.89
2023-01-07T01:39:20.916Z,7.70
2023-01-07T01:41:50.837Z,5.76
2023-01-07T01:44:40.949Z,6.84
2023-01-07T01:47:37.653Z,6.95
2023-01-07T01:50:44.642Z,7.47
2023-01-07T01:53:30.889Z,7.74
2023-01-07T01:56:22.616Z,6.96
2023-01-07T01:59:01.111Z,6.38
2023-01-07T02:01:37.493Z,5.62
2023-01-07T02:04:16.072Z,7.18
2023-01-07T02:07:10.070Z,7.53
2023-01-07T02:10:01.411Z,6.06
2023-01-07T02:13:21.175Z,7.97
2023-01-07T02:16:00.458Z,7.82
2023-01-07T02:18:55.854Z,5.73
2023-01-07T02:21:44.277Z,5.93
2023-01-07T02:24:22.622Z,6.57
2023-01-07T02:27:10.168Z,5.46
2023-01-07T02:29:58.313Z,6.00
2023-01-07T02:32:42.249Z,5.76
2023-01-07T02:35:29.950Z,6.54
2023-01-07T02:38:06.801Z,7.54
2023-01-07T02:41:03.434Z,7.08
2023-01-07T02:44:01.358Z,6.12
2023-01-07T02:46:46.870Z,6.41
2023-01-07T02:49:18.527Z,6.34
2023-01-07T02:51:50.006Z,7.36
2023-01-07T02:54:28.461Z,7.47
2023-01-07T02:57:41.112Z,5.67
2023-01-07T03:00:16.702Z,6.85
2023-01-07T03:02:59.761Z,7.08
2023-01-07T03:05:51.208Z,5.84
2023-01-07T03:08:37.094Z,6.47
2023-01-07T03:11:17.554Z,7.09
2023-01-07T03:14:13.327Z,6.36
2023-01-07T03:16:48.065Z,7.07
2023-01-07T03:19:36.931Z,5.97
2023-01-07T03:22:14.293Z,6.03
2023-01-07T03:24:47.569Z,6.57
2023-01-07T03:27:31.275Z,5.85
2023-01-07T03:30:06.092Z,7.08
2023-01-07T03:32:43.041Z,6.19
2023-01-07T03:35:14.229Z,6.75
2023-01-07T03:37:46.041Z,6.81
2023-01-07T03:40:15.641Z,6.69
2023-01-07T03:42:49.404Z,7.15
2023-01-07T03:45:27.160Z,6.55
2023-01-07T03:47:59.040Z,6.47
2023-01-07T03:50:35.515Z,6.63
2023-01-07T03:53:05.442Z,8.11
2023-01-07T03:55:37.842Z,7.03
2023-01-07T03:58:07.422Z,7.24
2023-01-07T04:00:36.744Z,7.10
2023-01-07T04:03:14.715Z,8.48
2023-01-07T04:05:47.978Z,8.03
2023-01-07T04:08:17.187Z,8.07
2023-01-07T04:10:46.938Z,9.18
2023-01-07T04:13:16.911Z,8.31
2023-01-07T04:15:49.681Z,8.73
2023-01-07T04:18:19.147Z,9.10
2023-01-07T04:20:49.206Z,9.09
2023-01-07T04:23:23.305Z,9.38
2023-01-07T04:25:54.966Z,9.37
2023-01-07T04:28:27.471Z,9.21
2023-01-07T04:31:01.788Z,9.25
2023-01-07T04:33:32.489Z,9.41
2023-01-07T04:36:03.093Z,9.19
2023-01-07T04:38:32.698Z,8.85
2023-01-07T04:41:02.421Z,9.68
2023-01-07T04:43:32.340Z,9.81
2023-01-07T04:46:02.202Z,8.37
2023-01-07T04:48:32.182Z,7.93
2023-01-07T04:51:02.368Z,8.19
2023-01-07T04:53:32.578Z,8.49
2023-01-07T04:56:06.114Z,7.99
2023-01-07T04:58:36.114Z,9.82
2023-01-07T05:01:07.438Z,9.82
2023-01-07T05:03:38.075Z,9.05
2023-01-07T05:06:12.767Z,9.60
2023-01-07T05:08:42.476Z,9.73
2023-01-07T05:11:12.205Z,9.22
2023-01-07T05:13:45.059Z,9.04
2023-01-07T05:16:15.448Z,9.27
2023-01-07T05:18:50.308Z,9.32
2023-01-07T05:21:22.025Z,9.62
2023-01-07T05:23:52.648Z,9.86
2023-01-07T05:26:23.878Z,9.66
2023-01-07T05:28:54.596Z,10.81
2023-01-07T05:31:23.982Z,10.25
2023-01-07T05:34:04.773Z,10.43
2023-01-07T05:36:44.826Z,11.58
2023-01-07T05:39:14.909Z,11.52
2023-01-07T05:41:44.873Z,9.91
2023-01-07T05:44:14.508Z,11.74
2023-01-07T05:46:44.268Z,11.41
2023-01-07T05:49:13.475Z,16.21
2023-01-07T05:51:43.173Z,17.66
2023-01-07T05:54:12.930Z,15.71
2023-01-07T05:56:52.075Z,15.40
2023-01-07T05:59:21.502Z,19.31
2023-01-07T06:01:50.747Z,20.31
2023-01-07T06:04:30.208Z,21.15
2023-01-07T06:07:05.048Z,22.62
2023-01-07T06:09:44.517Z,22.75
2023-01-07T06:12:24.087Z,27.09
2023-01-07T06:14:53.712Z,28.41
2023-01-07T06:17:33.557Z,24.28
2023-01-07T06:20:09.683Z,21.25
2023-01-07T06:22:50.144Z,27.47
2023-01-07T06:25:22.138Z,22.11
2023-01-07T06:27:51.373Z,20.88
2023-01-07T06:30:20.550Z,24.48
2023-01-07T06:32:49.791Z,21.98
2023-01-07T06:35:21.683Z,22.40
2023-01-07T06:37:52.754Z,22.80
2023-01-07T06:40:25.678Z,17.08
2023-01-07T06:42:54.949Z,17.72
2023-01-07T06:45:35.111Z,25.18
2023-01-07T06:48:04.837Z,27.41
2023-01-07T06:50:45.687Z,19.75
2023-01-07T06:53:16.985Z,17.82
2023-01-07T06:55:50.934Z,18.41
2023-01-07T06:58:30.163Z,14.25
2023-01-07T07:01:08.888Z,16.21
2023-01-07T07:03:46.224Z,19.02
2023-01-07T07:06:16.557Z,15.94
2023-01-07T07:08:46.331Z,21.69
2023-01-07T07:11:15.528Z,25.18
2023-01-07T07:13:44.862Z,20.63
2023-01-07T07:16:22.952Z,27.86
2023-01-07T07:18:57.225Z,26.27
2023-01-07T07:21:27.077Z,22.46
2023-01-07T07:23:56.252Z,19.49
2023-01-07T07:26:25.497Z,22.13
2023-01-07T07:29:00.285Z,18.73
2023-01-07T07:31:40.540Z,19.15
2023-01-07T07:34:11.701Z,30.38
2023-01-07T07:36:41.929Z,16.46
2023-01-07T07:39:12.550Z,18.13
2023-01-07T07:41:42.140Z,17.69
2023-01-07T07:44:17.500Z,18.39
2023-01-07T07:46:47.361Z,18.18
2023-01-07T07:49:21.374Z,17.04
2023-01-07T07:51:50.507Z,17.95
2023-01-07T07:54:23.826Z,16.76
2023-01-07T07:57:18.216Z,-144.99
2023-01-07T08:00:46.662Z,-144.99
2023-01-07T08:04:14.789Z,-144.99
2023-01-07T08:07:39.363Z,-144.99
2023-01-07T08:10:48.260Z,-144.99
2023-01-07T08:13:26.373Z,-144.99
2023-01-07T08:16:22.965Z,-144.99
2023-01-07T08:19:40.576Z,-144.99
2023-01-07T08:22:34.171Z,-144.99
2023-01-07T08:25:27.987Z,-144.99
2023-01-07T08:28:32.894Z,-144.99
2023-01-07T08:31:25.734Z,-144.99
2023-01-07T08:34:23.778Z,-144.99
2023-01-07T08:37:16.005Z,-144.99
2023-01-07T08:40:08.901Z,-144.99
2023-01-07T08:43:09.613Z,-144.99
2023-01-07T08:46:38.208Z,-144.99
2023-01-07T08:50:06.478Z,-144.99
2023-01-07T08:53:35.112Z,-144.99
2023-01-07T08:57:03.515Z,-144.99
2023-01-07T09:00:31.701Z,-144.99
2023-01-07T09:03:59.811Z,-144.99
2023-01-07T09:07:27.982Z,-144.99
2023-01-07T09:11:06.391Z,-144.99
2023-01-07T09:14:46.748Z,-144.99
2023-01-07T09:18:15.114Z,-144.99
2023-01-07T09:21:53.324Z,-144.99
2023-01-07T09:25:21.677Z,-144.99
2023-01-07T09:28:49.601Z,-144.99
2023-01-07T09:32:22.247Z,-144.99
2023-01-07T09:35:50.668Z,-144.99
2023-01-07T09:39:28.639Z,-144.99
2023-01-07T09:44:00.006Z,-144.99
2023-01-07T09:47:35.303Z,-144.99
2023-01-07T09:51:44.345Z,-144.99
2023-01-07T09:55:31.818Z,-144.99
2023-01-07T09:59:01.723Z,-144.99
2023-01-07T10:02:35.354Z,-144.99
2023-01-07T10:06:43.873Z,-144.99
2023-01-07T10:10:31.080Z,-144.99
2023-01-07T10:14:31.112Z,-144.99
2023-01-07T10:18:43.288Z,-144.99
2023-01-07T10:22:32.181Z,-144.99
2023-01-07T10:26:03.814Z,-144.99
2023-01-07T10:29:53.428Z,-144.99
2023-01-07T10:33:30.203Z,-144.99
2023-01-07T10:37:33.096Z,-144.99
2023-01-07T10:41:24.721Z,-144.99
2023-01-07T10:45:36.835Z,-144.99
2023-01-07T10:49:43.927Z,-144.99
2023-01-07T10:53:44.352Z,-144.99
2023-01-07T10:57:34.849Z,-144.99
2023-01-07T11:01:20.575Z,-144.99
2023-01-07T11:04:50.323Z,-144.99
2023-01-07T11:08:36.950Z,-144.99
2023-01-07T11:12:24.731Z,-144.99
2023-01-07T11:15:56.558Z,-144.99
2023-01-07T11:19:52.792Z,-144.99
2023-01-07T11:23:30.375Z,-144.99
2023-01-07T11:27:14.829Z,-144.99
2023-01-07T11:30:44.423Z,-144.99
2023-01-07T11:34:37.815Z,-144.99
2023-01-07T11:38:25.492Z,-144.99
2023-01-07T11:42:00.437Z,-144.99
2023-01-07T11:45:32.007Z,-144.99
2023-01-07T11:49:20.068Z,-144.99
2023-01-07T11:53:01.773Z,-144.99
2023-01-07T11:56:32.651Z,-144.99
2023-01-07T12:00:14.750Z,-144.99
2023-01-07T12:03:43.826Z,-144.99
2023-01-07T12:07:16.194Z,-144.99
2023-01-07T12:10:45.030Z,-144.99
2023-01-07T12:14:24.654Z,-144.99
2023-01-07T12:18:08.682Z,-144.99
2023-01-07T12:21:58.015Z,-144.99
2023-01-07T12:25:45.997Z,-144.99
2023-01-07T12:29:28.361Z,-144.99
2023-01-07T12:33:20.936Z,-144.99
2023-01-07T12:36:53.858Z,-144.99
2023-01-07T12:40:25.385Z,-144.99
2023-01-07T12:43:31.442Z,-144.99
2023-01-07T12:47:32.220Z,-144.99
2023-01-07T12:51:29.637Z,-144.99
2023-01-07T12:55:21.222Z,-144.99
2023-01-07T12:59:00.577Z,-144.99
2023-01-07T13:02:48.703Z,-144.99
2023-01-07T13:06:36.674Z,-144.99
2023-01-07T13:14:36.862Z,-144.99
2023-01-07T13:18:31.422Z,-144.99
2023-01-07T13:22:20.710Z,-144.99
2023-01-07T13:26:21.948Z,-144.99
2023-01-07T13:30:27.220Z,-144.99
2023-01-07T13:34:15.462Z,-144.99
2023-01-07T13:38:02.006Z,-144.99
2023-01-07T13:42:07.471Z,-144.99
2023-01-07T13:45:48.998Z,-144.99
2023-01-07T13:49:26.874Z,-144.99
2023-01-07T13:53:15.037Z,-144.99
2023-01-07T13:56:47.286Z,-144.99
2023-01-07T14:00:38.449Z,-144.99
2023-01-07T14:05:03.868Z,-144.99
2023-01-07T14:08:44.177Z,-144.99
2023-01-07T14:12:41.519Z,-144.99
2023-01-07T14:16:43.071Z,-144.99
2023-01-07T14:20:19.616Z,-144.99
2023-01-07T14:24:21.015Z,-144.99
2023-01-07T14:28:22.868Z,-144.99
2023-01-07T14:32:24.180Z,-144.99
2023-01-07T14:36:12.483Z,-144.99
2023-01-07T14:39:44.400Z,-144.99
2023-01-07T14:43:33.601Z,-144.99
2023-01-07T14:47:41.151Z,-144.99
2023-01-07T14:51:42.966Z,-144.99
2023-01-07T14:55:45.719Z,-144.99
2023-01-07T14:59:44.681Z,-144.99
2023-01-07T15:03:31.125Z,-144.99
2023-01-07T15:07:14.195Z,-144.99
2023-01-07T15:11:21.278Z,-144.99
2023-01-07T15:15:25.774Z,-144.99
2023-01-07T15:18:54.731Z,-144.99
2023-01-07T15:23:00.311Z,-144.99
2023-01-07T15:26:40.911Z,-144.99
2023-01-07T15:30:08.686Z,-144.99
2023-01-07T15:33:57.742Z,-144.99
2023-01-07T15:37:27.742Z,-144.99
2023-01-07T15:41:01.931Z,-144.99
2023-01-07T15:44:40.319Z,-144.99
2023-01-07T15:48:29.707Z,-144.99
2023-01-07T15:52:01.834Z,-144.99
2023-01-07T15:55:42.244Z,-144.99
2023-01-07T15:59:16.784Z,-144.99
2023-01-07T16:02:49.195Z,-144.99
2023-01-07T16:06:32.393Z,-144.99
2023-01-07T16:10:21.746Z,-144.99
2023-01-07T16:14:01.769Z,-144.99
2023-01-07T16:17:31.608Z,-144.99
2023-01-07T16:21:15.601Z,-144.99
2023-01-07T16:24:54.473Z,-144.99
2023-01-07T16:28:38.680Z,-144.99
2023-01-07T16:32:09.962Z,-144.99
2023-01-07T16:35:40.571Z,-144.99
2023-01-07T16:39:26.069Z,-144.99
2023-01-07T16:42:55.888Z,-144.99
2023-01-07T16:46:33.517Z,-144.99
2023-01-07T16:50:16.534Z,-144.99
2023-01-07T16:54:17.110Z,-144.99
2023-01-07T16:56:57.453Z,-144.99
2023-01-07T16:59:50.443Z,-144.99
2023-01-07T17:03:54.200Z,-144.99
2023-01-07T17:07:26.814Z,-144.99
2023-01-07T17:11:02.805Z,-144.99
2023-01-07T17:14:35.195Z,-144.99
2023-01-07T17:18:12.904Z,-144.99
2023-01-07T17:21:49.480Z,-144.99
2023-01-07T17:25:22.518Z,-144.99
2023-01-07T17:28:07.112Z,-144.99
2023-01-07T17:30:53.461Z,-144.99
2023-01-07T17:34:25.197Z,-144.99
2023-01-07T17:37:58.995Z,-144.99
2023-01-07T17:41:52.915Z,-144.99
2023-01-07T17:45:22.828Z,-144.99
2023-01-07T17:48:56.001Z,-144.99
2023-01-07T17:52:25.033Z,-144.99
2023-01-07T17:56:04.665Z,-144.99
2023-01-07T17:59:36.400Z,-144.99
2023-01-07T18:02:52.695Z,-144.99
2023-01-07T18:05:55.235Z,-144.99
2023-01-07T18:09:18.832Z,-144.99
2023-01-07T18:12:47.299Z,-144.99
2023-01-07T18:16:20.613Z,-144.99
2023-01-07T18:19:53.029Z,-144.99
2023-01-07T18:23:21.665Z,-144.99
2023-01-07T18:26:22.039Z,-144.99
2023-01-07T18:30:00.510Z,-144.99
2023-01-07T18:33:43.617Z,-144.99
2023-01-07T18:37:11.954Z,-144.99
2023-01-07T18:40:50.572Z,-144.99
2023-01-07T18:44:21.285Z,-144.99
2023-01-07T18:47:52.930Z,-144.99
2023-01-07T18:51:26.074Z,-144.99
2023-01-07T18:54:54.095Z,-144.99
2023-01-07T18:58:32.170Z,-144.99
2023-01-07T19:01:09.618Z,-144.99
2023-01-07T19:04:07.015Z,-144.99
2023-01-07T19:06:56.092Z,-144.99
2023-01-07T19:10:23.451Z,-144.99
2023-01-07T19:13:51.582Z,-144.99
2023-01-07T19:16:58.752Z,-144.99
2023-01-07T19:20:36.720Z,-144.99
2023-01-07T19:24:05.047Z,-144.99
2023-01-07T19:27:43.481Z,-144.99
2023-01-07T19:31:12.096Z,-144.99
2023-01-07T19:34:45.048Z,-144.99
2023-01-07T19:38:22.688Z,-144.99
2023-01-07T19:41:50.806Z,-144.99
2023-01-07T19:45:18.730Z,-144.99
2023-01-07T19:48:49.569Z,-144.99
2023-01-07T19:52:17.972Z,-144.99
2023-01-07T19:55:45.806Z,-144.99
2023-01-07T19:59:19.704Z,-144.99
2023-01-07T20:02:59.860Z,-144.99
2023-01-07T20:06:28.434Z,-144.99
2023-01-07T20:10:01.386Z,-144.99
2023-01-07T20:13:30.971Z,-144.99
2023-01-07T20:17:13.163Z,-144.99
2023-01-07T20:20:41.475Z,-144.99
2023-01-07T20:24:09.662Z,-144.99
2023-01-07T20:27:48.834Z,-144.99
2023-01-07T20:31:18.239Z,-144.99
2023-01-07T20:34:55.146Z,-144.99
2023-01-07T20:38:29.063Z,-144.99
2023-01-07T20:41:52.982Z,-144.99
2023-01-07T20:45:19.951Z,-144.99
2023-01-07T20:48:48.174Z,-144.99
2023-01-07T20:52:15.637Z,-144.99
2023-01-07T20:54:54.233Z,-144.99
2023-01-07T20:58:15.832Z,-144.99
2023-01-07T21:00:45.078Z,-144.99
2023-01-07T21:03:14.394Z,-144.99
2023-01-07T21:05:44.094Z,-144.99
2023-01-07T21:08:18.699Z,-144.99
2023-01-07T21:10:53.285Z,-144.99
2023-01-07T21:13:26.293Z,-144.99
2023-01-07T21:16:03.494Z,-144.99
2023-01-07T21:18:34.050Z,-144.99
2023-01-07T21:21:12.783Z,-144.99
2023-01-07T21:23:54.958Z,-144.99
2023-01-07T21:26:25.379Z,-144.99
2023-01-07T21:28:56.344Z,-144.99
2023-01-07T21:31:27.038Z,-144.99
2023-01-07T21:33:58.592Z,-144.99
2023-01-07T21:36:36.847Z,-144.99
2023-01-07T21:39:12.936Z,-144.99
2023-01-07T21:41:52.537Z,-144.99
2023-01-07T21:44:21.844Z,-144.99
2023-01-07T21:46:50.915Z,-144.99
2023-01-07T21:49:20.099Z,-144.99
2023-01-07T21:51:54.796Z,-144.99
2023-01-07T21:54:23.993Z,-144.99
2023-01-07T21:56:53.080Z,-144.99
2023-01-07T21:59:23.029Z,-144.99
2023-01-07T22:02:03.092Z,-144.99
2023-01-07T22:04:32.621Z,-144.99
2023-01-07T22:07:17.582Z,-144.99
2023-01-07T22:09:48.056Z,-144.99
2023-01-07T22:12:23.827Z,-144.99
2023-01-07T22:15:02.656Z,-144.99
2023-01-07T22:17:42.014Z,-144.99
2023-01-07T22:20:21.591Z,-144.99
2023-01-07T22:22:51.527Z,-144.99
2023-01-07T22:25:20.800Z,-144.99
2023-01-07T22:28:05.022Z,-144.99
2023-01-07T22:30:42.549Z,-144.99
2023-01-07T22:33:11.690Z,-144.99
2023-01-07T22:35:41.686Z,-144.99
2023-01-07T22:38:19.279Z,-144.99
2023-01-07T22:40:49.505Z,-144.99
2023-01-07T22:43:24.943Z,-144.99
2023-01-07T22:46:03.262Z,-144.99
2023-01-07T22:48:39.540Z,-144.99
2023-01-07T22:51:25.247Z,-144.99
2023-01-07T22:53:57.168Z,-144.99
2023-01-07T22:56:26.992Z,-144.99
2023-01-07T22:59:06.201Z,-144.99
2023-01-07T23:01:38.160Z,-144.99
2023-01-07T23:04:17.889Z,-144.99
2023-01-07T23:06:57.183Z,-144.99
2023-01-07T23:09:31.714Z,-144.99
2023-01-07T23:12:06.379Z,-144.99
2023-01-07T23:14:36.035Z,-144.99
2023-01-07T23:17:14.637Z,-144.99
2023-01-07T23:19:44.453Z,-144.99
2023-01-07T23:22:23.051Z,-144.99
2023-01-07T23:24:52.189Z,-144.99
2023-01-07T23:27:21.247Z,-144.99
2023-01-07T23:29:51.159Z,-144.99
2023-01-07T23:32:31.449Z,-144.99
2023-01-07T23:35:10.631Z,-144.99
2023-01-07T23:37:50.309Z,-144.99
2023-01-07T23:40:34.431Z,-144.99
2023-01-07T23:43:04.197Z,-144.99
2023-01-07T23:45:38.982Z,-144.99
2023-01-07T23:48:08.252Z,-144.99
2023-01-07T23:50:39.700Z,-144.99
2023-01-07T23:53:09.345Z,-144.99
2023-01-07T23:55:54.566Z,-144.99
2023-01-07T23:58:34.618Z,-144.99
